createdAt,value
2018-02-13T00:01:06.144Z,8.60
2018-02-13T00:03:34.565Z,9.82
2018-02-13T00:06:02.864Z,8.50
2018-02-13T00:08:31.049Z,9.43
2018-02-13T00:10:59.312Z,8.82
2018-02-13T00:13:28.265Z,10.27
2018-02-13T00:15:56.476Z,11.07
2018-02-13T00:18:24.816Z,14.50
2018-02-13T00:20:52.998Z,9.25
2018-02-13T00:23:21.176Z,13.95
2018-02-13T00:25:49.435Z,10.65
2018-02-13T00:28:17.625Z,7.87
2018-02-13T00:30:46.198Z,10.43
2018-02-13T00:33:14.416Z,8.20
2018-02-13T00:35:42.647Z,8.60
2018-02-13T00:38:10.847Z,9.38
2018-02-13T00:40:39.794Z,8.57
2018-02-13T00:43:08.108Z,8.02
2018-02-13T00:45:37.090Z,8.55
2018-02-13T00:48:06.061Z,9.05
2018-02-13T00:50:34.312Z,8.18
2018-02-13T00:53:02.520Z,8.10
2018-02-13T00:55:30.726Z,8.02
2018-02-13T00:57:58.945Z,8.50
2018-02-13T01:00:27.166Z,8.00
2018-02-13T01:02:56.118Z,7.85
2018-02-13T01:05:24.324Z,6.15
2018-02-13T01:07:53.295Z,6.35
2018-02-13T01:10:21.500Z,7.10
2018-02-13T01:12:50.472Z,7.70
2018-02-13T01:15:18.669Z,6.87
2018-02-13T01:17:47.645Z,6.50
2018-02-13T01:20:16.597Z,7.60
2018-02-13T01:22:44.784Z,6.62
2018-02-13T01:25:13.181Z,8.10
2018-02-13T01:27:41.454Z,6.25
2018-02-13T01:30:09.687Z,7.50
2018-02-13T01:32:38.029Z,5.87
2018-02-13T01:35:06.228Z,6.15
2018-02-13T01:37:34.464Z,6.85
2018-02-13T01:40:03.441Z,6.62
2018-02-13T01:42:31.736Z,6.75
2018-02-13T01:45:00.689Z,6.45
2018-02-13T01:47:28.913Z,6.50
2018-02-13T01:49:57.132Z,7.40
2018-02-13T01:52:25.336Z,6.57
2018-02-13T01:54:54.308Z,7.07
2018-02-13T01:57:22.529Z,6.75
2018-02-13T01:59:50.800Z,7.57
2018-02-13T02:02:20.993Z,6.53
2018-02-13T02:04:49.702Z,7.25
2018-02-13T02:07:17.900Z,6.22
2018-02-13T02:09:46.081Z,6.60
2018-02-13T02:12:14.324Z,7.72
2018-02-13T02:14:43.292Z,6.43
2018-02-13T02:17:11.473Z,8.07
2018-02-13T02:19:40.476Z,7.10
2018-02-13T02:22:09.545Z,5.62
2018-02-13T02:24:37.849Z,7.75
2018-02-13T02:27:06.917Z,7.35
2018-02-13T02:29:35.224Z,7.50
2018-02-13T02:32:03.433Z,7.12
2018-02-13T02:34:31.682Z,6.80
2018-02-13T02:36:59.939Z,8.18
2018-02-13T02:39:28.921Z,8.70
2018-02-13T02:41:57.913Z,7.93
2018-02-13T02:44:26.881Z,7.30
2018-02-13T02:46:55.169Z,9.55
2018-02-13T02:49:23.374Z,9.55
2018-02-13T02:51:51.612Z,8.38
2018-02-13T02:54:20.311Z,7.97
2018-02-13T02:56:49.876Z,9.73
2018-02-13T02:59:18.060Z,7.68
2018-02-13T03:01:46.461Z,7.80
2018-02-13T03:04:14.641Z,7.75
2018-02-13T03:06:42.847Z,8.27
2018-02-13T03:09:11.068Z,7.93
2018-02-13T03:11:39.279Z,7.90
2018-02-13T03:14:08.371Z,10.48
2018-02-13T03:16:37.347Z,9.40
2018-02-13T03:19:06.312Z,8.27
2018-02-13T03:21:34.652Z,9.90
2018-02-13T03:24:02.841Z,7.50
2018-02-13T03:26:31.052Z,9.35
2018-02-13T03:28:59.248Z,8.98
2018-02-13T03:31:28.305Z,9.38
2018-02-13T03:33:56.506Z,9.32
2018-02-13T03:36:25.489Z,9.10
2018-02-13T03:38:53.698Z,9.52
2018-02-13T03:41:21.911Z,9.75
2018-02-13T03:43:50.136Z,10.45
2018-02-13T03:46:18.316Z,10.65
2018-02-13T03:48:46.585Z,11.30
2018-02-13T03:51:14.773Z,10.93
2018-02-13T03:53:42.954Z,9.95
2018-02-13T03:56:12.024Z,13.40
2018-02-13T03:58:40.236Z,10.55
2018-02-13T04:01:08.440Z,12.30
2018-02-13T04:03:36.696Z,13.23
2018-02-13T04:06:04.880Z,12.37
2018-02-13T04:08:33.856Z,12.43
2018-02-13T04:11:02.060Z,12.90
2018-02-13T04:13:30.240Z,12.85
2018-02-13T04:15:59.227Z,11.40
2018-02-13T04:18:27.436Z,13.60
2018-02-13T04:20:55.678Z,13.77
2018-02-13T04:23:23.889Z,12.93
2018-02-13T04:25:52.128Z,12.68
2018-02-13T04:28:20.746Z,14.27
2018-02-13T04:30:49.021Z,11.40
2018-02-13T04:33:17.431Z,13.52
2018-02-13T04:35:45.639Z,15.80
2018-02-13T04:38:14.852Z,19.15
2018-02-13T04:40:43.829Z,19.98
2018-02-13T04:43:12.836Z,11.90
2018-02-13T04:45:42.014Z,13.45
2018-02-13T04:48:10.197Z,12.18
2018-02-13T04:50:39.152Z,13.73
2018-02-13T04:53:07.392Z,13.00
2018-02-13T04:55:35.647Z,13.25
2018-02-13T04:58:03.836Z,14.65
2018-02-13T05:00:32.046Z,13.88
2018-02-13T05:03:00.264Z,15.02
2018-02-13T05:05:29.251Z,16.17
2018-02-13T05:07:58.299Z,14.02
2018-02-13T05:10:26.490Z,16.58
2018-02-13T05:12:54.708Z,16.23
2018-02-13T05:15:22.956Z,15.65
2018-02-13T05:17:51.224Z,17.52
2018-02-13T05:20:19.525Z,15.18
2018-02-13T05:22:49.336Z,15.90
2018-02-13T05:25:18.308Z,15.38
2018-02-13T05:27:47.320Z,16.02
2018-02-13T05:30:16.276Z,18.33
2018-02-13T05:32:44.499Z,16.75
2018-02-13T05:35:12.798Z,16.62
2018-02-13T05:37:41.021Z,86.40
2018-02-13T05:40:10.055Z,33.00
2018-02-13T05:42:38.969Z,35.47
2018-02-13T05:45:07.184Z,34.67
2018-02-13T05:47:36.284Z,19.20
2018-02-13T05:50:06.069Z,30.58
2018-02-13T05:52:34.358Z,22.13
2018-02-13T05:55:03.474Z,17.50
2018-02-13T05:57:31.713Z,19.70
2018-02-13T05:59:59.948Z,19.37
2018-02-13T06:02:28.980Z,21.00
2018-02-13T06:04:57.208Z,19.20
2018-02-13T06:07:25.424Z,22.10
2018-02-13T06:09:53.666Z,19.17
2018-02-13T06:12:21.884Z,21.67
2018-02-13T06:14:50.077Z,19.12
2018-02-13T06:17:19.176Z,20.60
2018-02-13T06:19:47.368Z,19.15
2018-02-13T06:22:15.622Z,20.65
2018-02-13T06:24:43.897Z,19.00
2018-02-13T06:27:12.862Z,20.65
2018-02-13T06:29:41.147Z,21.85
2018-02-13T06:32:09.441Z,21.00
2018-02-13T06:34:37.632Z,23.27
2018-02-13T06:37:05.864Z,19.12
2018-02-13T06:39:34.072Z,19.87
2018-02-13T06:42:02.265Z,20.42
2018-02-13T06:44:30.497Z,20.62
2018-02-13T06:46:59.453Z,26.10
2018-02-13T06:49:27.676Z,23.20
2018-02-13T06:51:55.926Z,20.98
2018-02-13T06:54:24.128Z,21.45
2018-02-13T06:56:52.336Z,21.00
2018-02-13T06:59:20.596Z,21.30
2018-02-13T07:01:48.794Z,22.48
2018-02-13T07:04:16.997Z,21.70
2018-02-13T07:06:45.296Z,21.58
2018-02-13T07:09:13.492Z,22.08
2018-02-13T07:11:41.674Z,20.50
2018-02-13T07:14:10.101Z,21.52
2018-02-13T07:16:38.418Z,19.33
2018-02-13T07:19:06.768Z,21.85
2018-02-13T07:21:35.765Z,21.05
2018-02-13T07:24:04.287Z,19.12
2018-02-13T07:26:32.516Z,20.08
2018-02-13T07:29:01.497Z,18.77
2018-02-13T07:31:30.482Z,22.65
2018-02-13T07:33:58.704Z,19.85
2018-02-13T07:36:26.920Z,19.55
2018-02-13T07:38:55.112Z,19.20
2018-02-13T07:41:24.196Z,20.30
2018-02-13T07:43:52.415Z,18.95
2018-02-13T07:46:20.624Z,19.33
2018-02-13T07:48:48.827Z,20.75
2018-02-13T07:51:18.416Z,19.25
2018-02-13T07:53:46.750Z,19.67
2018-02-13T07:56:14.965Z,22.45
2018-02-13T07:58:43.168Z,20.33
2018-02-13T08:01:12.164Z,21.30
2018-02-13T08:03:41.124Z,19.48
2018-02-13T08:06:09.334Z,23.62
2018-02-13T08:08:37.556Z,19.08
2018-02-13T08:11:05.783Z,20.25
2018-02-13T08:13:34.012Z,18.62
2018-02-13T08:16:02.214Z,17.80
2018-02-13T08:18:31.196Z,19.25
2018-02-13T08:20:59.793Z,20.00
2018-02-13T08:23:28.746Z,18.60
2018-02-13T08:25:56.965Z,19.30
2018-02-13T08:28:25.180Z,18.17
2018-02-13T08:30:53.360Z,19.58
2018-02-13T08:33:21.551Z,18.50
2018-02-13T08:35:49.944Z,16.17
2018-02-13T08:38:18.156Z,22.87
2018-02-13T08:40:46.348Z,18.20
2018-02-13T08:43:14.567Z,17.98
2018-02-13T08:45:43.568Z,17.30
2018-02-13T08:48:12.516Z,19.12
2018-02-13T08:50:40.709Z,17.58
2018-02-13T08:53:08.928Z,17.52
2018-02-13T08:55:37.140Z,16.92
2018-02-13T08:58:05.368Z,18.58
2018-02-13T09:00:33.622Z,16.23
2018-02-13T09:03:03.488Z,17.42
2018-02-13T09:05:31.704Z,18.37
2018-02-13T09:07:59.936Z,16.95
2018-02-13T09:10:28.143Z,16.85
2018-02-13T09:12:56.384Z,15.55
2018-02-13T09:15:24.612Z,18.37
2018-02-13T09:17:53.612Z,16.92
2018-02-13T09:20:22.695Z,17.25
2018-02-13T09:22:50.987Z,15.20
2018-02-13T09:25:19.256Z,15.20
2018-02-13T09:27:47.463Z,15.50
2018-02-13T09:30:15.672Z,14.38
2018-02-13T09:32:43.924Z,15.75
2018-02-13T09:35:12.141Z,16.40
2018-02-13T09:37:41.121Z,17.17
2018-02-13T09:40:09.335Z,13.48
2018-02-13T09:42:38.128Z,16.33
2018-02-13T09:45:06.380Z,15.68
2018-02-13T09:47:34.660Z,15.77
2018-02-13T09:50:02.852Z,15.73
2018-02-13T09:52:31.076Z,17.10
2018-02-13T09:54:59.563Z,17.60
2018-02-13T09:57:28.365Z,16.25
2018-02-13T09:59:57.354Z,15.20
2018-02-13T10:02:26.308Z,15.05
2018-02-13T10:04:54.492Z,14.07
2018-02-13T10:07:22.759Z,15.50
2018-02-13T10:09:50.973Z,15.48
2018-02-13T10:12:20.060Z,15.38
2018-02-13T10:14:49.044Z,14.93
2018-02-13T10:17:17.264Z,14.35
2018-02-13T10:19:45.448Z,13.93
2018-02-13T10:22:13.985Z,16.02
2018-02-13T10:24:42.968Z,14.50
2018-02-13T10:27:12.076Z,13.60
2018-02-13T10:29:40.297Z,15.00
2018-02-13T10:32:08.513Z,14.20
2018-02-13T10:34:37.496Z,13.85
2018-02-13T10:37:07.297Z,13.50
2018-02-13T10:39:35.492Z,15.35
2018-02-13T10:42:04.446Z,14.57
2018-02-13T10:44:32.652Z,14.20
2018-02-13T10:47:01.642Z,14.25
2018-02-13T10:49:31.061Z,14.80
2018-02-13T10:51:59.291Z,14.15
2018-02-13T10:54:27.508Z,13.20
2018-02-13T10:56:55.753Z,15.40
2018-02-13T10:59:23.984Z,12.77
2018-02-13T11:01:52.177Z,12.57
2018-02-13T11:04:20.417Z,15.57
2018-02-13T11:06:48.713Z,12.67
2018-02-13T11:09:17.093Z,13.47
2018-02-13T11:11:45.428Z,13.50
2018-02-13T11:14:14.396Z,14.23
2018-02-13T11:16:42.617Z,13.50
2018-02-13T11:19:10.849Z,12.90
2018-02-13T11:21:39.290Z,12.27
2018-02-13T11:24:07.489Z,13.43
2018-02-13T11:26:36.247Z,12.23
2018-02-13T11:29:04.445Z,12.77
2018-02-13T11:31:32.780Z,10.90
2018-02-13T11:34:00.999Z,11.70
2018-02-13T11:36:29.296Z,13.17
2018-02-13T11:38:57.525Z,13.63
2018-02-13T11:41:25.875Z,13.13
2018-02-13T11:43:54.090Z,13.50
2018-02-13T11:46:22.300Z,11.53
2018-02-13T11:48:51.284Z,13.23
2018-02-13T11:51:19.504Z,13.07
2018-02-13T11:53:47.708Z,14.60
2018-02-13T11:56:15.948Z,13.23
2018-02-13T11:58:44.158Z,12.67
2018-02-13T12:01:12.482Z,13.60
2018-02-13T12:03:40.712Z,12.87
2018-02-13T12:06:09.372Z,12.60
2018-02-13T12:08:37.584Z,12.90
2018-02-13T12:11:06.121Z,11.00
2018-02-13T12:13:34.401Z,12.00
2018-02-13T12:16:02.820Z,12.67
2018-02-13T12:18:31.033Z,11.53
2018-02-13T12:20:59.294Z,11.17
2018-02-13T12:23:28.396Z,12.10
2018-02-13T12:25:56.669Z,11.80
2018-02-13T12:28:24.881Z,12.53
2018-02-13T12:30:53.076Z,11.83
2018-02-13T12:33:21.306Z,12.33
2018-02-13T12:35:49.592Z,12.80
2018-02-13T12:38:18.410Z,12.07
2018-02-13T12:40:46.696Z,11.33
2018-02-13T12:43:14.892Z,11.50
2018-02-13T12:45:43.849Z,12.73
2018-02-13T12:48:12.919Z,12.03
2018-02-13T12:50:41.194Z,11.60
2018-02-13T12:53:09.409Z,12.00
2018-02-13T12:55:38.423Z,11.13
2018-02-13T12:58:07.852Z,11.93
2018-02-13T13:00:36.065Z,11.97
2018-02-13T13:03:04.334Z,12.33
2018-02-13T13:05:32.529Z,12.53
2018-02-13T13:08:00.720Z,12.40
2018-02-13T13:10:29.758Z,12.47
2018-02-13T13:12:57.973Z,11.70
2018-02-13T13:15:26.188Z,11.50
2018-02-13T13:17:54.464Z,11.33
2018-02-13T13:20:23.470Z,10.50
2018-02-13T13:22:51.661Z,10.70
2018-02-13T13:25:19.839Z,12.47
2018-02-13T13:27:48.090Z,10.23
2018-02-13T13:30:16.883Z,9.67
2018-02-13T13:32:45.069Z,9.20
2018-02-13T13:35:14.044Z,9.80
2018-02-13T13:37:42.220Z,9.30
2018-02-13T13:40:10.378Z,10.60
2018-02-13T13:42:38.521Z,10.67
2018-02-13T13:45:07.442Z,9.37
2018-02-13T13:47:35.717Z,10.37
2018-02-13T13:50:03.853Z,8.90
2018-02-13T13:52:32.761Z,10.43
2018-02-13T13:55:01.678Z,12.40
2018-02-13T13:57:30.244Z,10.53
2018-02-13T13:59:58.382Z,9.67
2018-02-13T14:02:26.517Z,9.67
2018-02-13T14:04:54.690Z,10.33
2018-02-13T14:07:23.543Z,13.37
2018-02-13T14:09:52.451Z,14.90
2018-02-13T14:12:20.605Z,11.40
2018-02-13T14:14:48.745Z,9.50
2018-02-13T14:17:16.922Z,10.33
2018-02-13T14:19:45.848Z,18.23
2018-02-13T14:22:14.305Z,11.67
2018-02-13T14:24:43.538Z,13.00
2018-02-13T14:27:11.700Z,12.47
2018-02-13T14:29:39.873Z,14.97
2018-02-13T14:32:08.047Z,10.83
2018-02-13T14:34:36.222Z,11.80
2018-02-13T14:37:04.369Z,10.60
2018-02-13T14:39:33.269Z,12.83
2018-02-13T14:42:01.763Z,10.40
2018-02-13T14:44:30.413Z,21.63
2018-02-13T14:46:58.573Z,13.20
2018-02-13T14:49:26.713Z,10.10
2018-02-13T14:51:54.861Z,9.07
2018-02-13T14:54:23.026Z,8.20
2018-02-13T14:56:51.170Z,11.60
2018-02-13T14:59:19.393Z,10.80
2018-02-13T15:01:47.549Z,10.73
2018-02-13T15:04:15.720Z,14.83
2018-02-13T15:06:43.904Z,18.23
2018-02-13T15:09:12.682Z,19.83
2018-02-13T15:11:40.835Z,22.50
2018-02-13T15:14:09.778Z,11.27
2018-02-13T15:16:39.437Z,25.00
2018-02-13T15:19:08.352Z,15.97
2018-02-13T15:21:36.533Z,14.77
2018-02-13T15:24:04.677Z,12.23
2018-02-13T15:26:33.613Z,15.60
2018-02-13T15:29:01.793Z,13.20
2018-02-13T15:31:29.945Z,12.20
2018-02-13T15:33:58.105Z,11.17
2018-02-13T15:36:26.298Z,12.07
2018-02-13T15:38:54.433Z,11.20
2018-02-13T15:41:22.585Z,11.20
2018-02-13T15:43:50.809Z,9.90
2018-02-13T15:46:18.960Z,12.43
2018-02-13T15:48:47.103Z,10.47
2018-02-13T15:51:15.254Z,11.40
2018-02-13T15:53:43.396Z,10.90
2018-02-13T15:56:11.729Z,12.98
2018-02-13T15:58:40.679Z,11.93
2018-02-13T16:01:08.811Z,17.33
2018-02-13T16:03:36.970Z,17.37
2018-02-13T16:06:05.883Z,11.95
2018-02-13T16:08:34.045Z,12.63
2018-02-13T16:11:02.211Z,11.07
2018-02-13T16:13:31.902Z,11.57
2018-02-13T16:16:00.053Z,13.93
2018-02-13T16:18:28.293Z,11.15
2018-02-13T16:20:56.429Z,11.75
2018-02-13T16:23:25.365Z,12.40
2018-02-13T16:25:53.525Z,12.05
2018-02-13T16:28:21.709Z,11.90
2018-02-13T16:30:49.863Z,11.70
2018-02-13T16:33:18.034Z,37.40
2018-02-13T16:35:46.226Z,100.03
2018-02-13T16:38:14.374Z,126.80
2018-02-13T16:40:42.569Z,50.80
2018-02-13T16:43:10.853Z,16.27
2018-02-13T16:45:39.036Z,20.37
2018-02-13T16:48:07.197Z,23.50
2018-02-13T16:50:35.378Z,17.83
2018-02-13T16:53:03.506Z,15.20
2018-02-13T16:55:32.415Z,15.00
2018-02-13T16:58:00.566Z,14.10
2018-02-13T17:00:30.284Z,11.57
2018-02-13T17:02:58.433Z,11.80
2018-02-13T17:05:26.654Z,13.50
2018-02-13T17:07:54.784Z,13.20
2018-02-13T17:10:23.687Z,13.82
2018-02-13T17:12:52.661Z,13.55
2018-02-13T17:15:21.113Z,19.42
2018-02-13T17:17:49.254Z,14.80
2018-02-13T17:20:17.415Z,22.27
2018-02-13T17:22:45.550Z,20.42
2018-02-13T17:25:13.689Z,13.23
2018-02-13T17:27:41.837Z,13.88
2018-02-13T17:30:09.973Z,13.25
2018-02-13T17:32:38.218Z,13.62
2018-02-13T17:35:06.380Z,15.50
2018-02-13T17:37:34.581Z,12.88
2018-02-13T17:40:02.815Z,12.57
2018-02-13T17:42:30.965Z,12.50
2018-02-13T17:44:59.122Z,11.05
2018-02-13T17:47:28.026Z,11.85
2018-02-13T17:49:56.161Z,12.82
2018-02-13T17:52:24.318Z,13.32
2018-02-13T17:54:52.976Z,15.27
2018-02-13T17:57:21.117Z,13.52
2018-02-13T17:59:50.025Z,14.13
2018-02-13T18:02:18.193Z,14.20
2018-02-13T18:04:46.338Z,15.15
2018-02-13T18:07:14.569Z,14.20
2018-02-13T18:09:42.727Z,15.68
2018-02-13T18:12:10.916Z,15.23
2018-02-13T18:14:39.194Z,15.80
2018-02-13T18:17:07.336Z,15.82
2018-02-13T18:19:35.485Z,14.05
2018-02-13T18:22:04.629Z,29.12
2018-02-13T18:24:33.615Z,24.83
2018-02-13T18:27:01.754Z,25.58
2018-02-13T18:29:30.698Z,23.27
2018-02-13T18:31:58.842Z,22.80
2018-02-13T18:34:27.153Z,24.23
2018-02-13T18:36:55.312Z,21.17
2018-02-13T18:39:24.052Z,20.50
2018-02-13T18:41:52.995Z,21.25
2018-02-13T18:44:21.972Z,19.80
2018-02-13T18:46:50.101Z,21.85
2018-02-13T18:49:19.055Z,21.75
2018-02-13T18:51:47.192Z,20.00
2018-02-13T18:54:15.333Z,18.65
2018-02-13T18:56:44.297Z,20.58
2018-02-13T18:59:12.545Z,20.15
2018-02-13T19:01:40.694Z,21.33
2018-02-13T19:04:08.855Z,22.17
2018-02-13T19:06:37.781Z,24.12
2018-02-13T19:09:05.973Z,22.35
2018-02-13T19:11:34.141Z,22.87
2018-02-13T19:14:02.282Z,21.42
2018-02-13T19:16:30.466Z,21.40
2018-02-13T19:18:58.596Z,19.92
2018-02-13T19:21:27.498Z,22.48
2018-02-13T19:23:56.429Z,18.80
2018-02-13T19:26:24.566Z,20.50
2018-02-13T19:28:52.705Z,20.90
2018-02-13T19:31:20.860Z,19.75
2018-02-13T19:33:48.992Z,23.42
2018-02-13T19:36:17.290Z,21.70
2018-02-13T19:38:45.425Z,26.50
2018-02-13T19:41:14.333Z,31.85
2018-02-13T19:43:42.514Z,23.98
2018-02-13T19:46:10.654Z,22.40
2018-02-13T19:48:39.561Z,21.23
2018-02-13T19:51:07.733Z,20.55
2018-02-13T19:53:35.922Z,20.45
2018-02-13T19:56:04.166Z,21.90
2018-02-13T19:58:33.197Z,20.62
2018-02-13T20:01:01.341Z,19.75
2018-02-13T20:03:29.486Z,20.37
2018-02-13T20:05:58.502Z,19.20
2018-02-13T20:08:26.640Z,18.75
2018-02-13T20:10:54.781Z,19.25
2018-02-13T20:13:22.941Z,17.73
2018-02-13T20:15:51.073Z,18.33
2018-02-13T20:18:19.208Z,17.37
2018-02-13T20:20:47.793Z,16.90
2018-02-13T20:23:15.934Z,14.10
2018-02-13T20:25:44.079Z,14.82
2018-02-13T20:28:12.998Z,15.10
2018-02-13T20:30:41.165Z,13.23
2018-02-13T20:33:09.860Z,12.82
2018-02-13T20:35:38.001Z,15.52
2018-02-13T20:38:06.901Z,12.40
2018-02-13T20:40:35.840Z,14.10
2018-02-13T20:43:03.980Z,13.95
2018-02-13T20:45:32.169Z,14.02
2018-02-13T20:48:00.317Z,14.35
2018-02-13T20:50:28.485Z,14.32
2018-02-13T20:52:56.626Z,33.70
2018-02-13T20:55:24.770Z,47.75
2018-02-13T20:57:53.033Z,40.58
2018-02-13T21:00:21.249Z,28.62
2018-02-13T21:02:49.385Z,24.10
2018-02-13T21:05:17.555Z,28.40
2018-02-13T21:07:46.253Z,25.05
2018-02-13T21:10:14.389Z,23.05
2018-02-13T21:12:42.574Z,22.85
2018-02-13T21:15:10.749Z,23.95
2018-02-13T21:17:38.888Z,18.08
2018-02-13T21:20:07.833Z,18.77
2018-02-13T21:22:35.973Z,21.15
2018-02-13T21:25:04.101Z,19.10
2018-02-13T21:27:32.333Z,17.55
2018-02-13T21:30:00.505Z,15.52
2018-02-13T21:32:28.702Z,14.43
2018-02-13T21:34:56.841Z,14.02
2018-02-13T21:37:24.969Z,14.77
2018-02-13T21:39:53.132Z,19.95
2018-02-13T21:42:21.261Z,16.35
2018-02-13T21:44:49.398Z,13.95
2018-02-13T21:47:18.447Z,14.75
2018-02-13T21:49:46.586Z,14.15
2018-02-13T21:52:14.725Z,13.80
2018-02-13T21:54:43.421Z,12.75
2018-02-13T21:57:12.358Z,12.85
2018-02-13T21:59:40.533Z,13.60
2018-02-13T22:02:08.946Z,12.52
2018-02-13T22:04:37.077Z,11.63
2018-02-13T22:07:05.224Z,12.70
2018-02-13T22:09:33.373Z,12.35
2018-02-13T22:12:01.635Z,11.45
2018-02-13T22:14:29.769Z,13.00
2018-02-13T22:16:57.911Z,11.23
2018-02-13T22:19:26.184Z,11.18
2018-02-13T22:21:55.157Z,12.07
2018-02-13T22:24:23.303Z,11.68
2018-02-13T22:26:51.662Z,12.00
2018-02-13T22:29:19.827Z,11.35
2018-02-13T22:31:47.961Z,12.35
2018-02-13T22:34:16.939Z,11.25
2018-02-13T22:36:45.172Z,10.77
2018-02-13T22:39:13.329Z,10.40
2018-02-13T22:41:41.465Z,11.18
2018-02-13T22:44:09.609Z,11.20
2018-02-13T22:46:37.958Z,11.43
2018-02-13T22:49:06.093Z,15.25
2018-02-13T22:51:35.559Z,11.40
2018-02-13T22:54:03.707Z,11.10
2018-02-13T22:56:32.637Z,10.93
2018-02-13T22:59:01.610Z,9.60
2018-02-13T23:01:30.353Z,11.25
2018-02-13T23:03:59.325Z,11.10
2018-02-13T23:06:28.222Z,9.50
2018-02-13T23:08:57.117Z,10.80
2018-02-13T23:11:26.045Z,11.00
2018-02-13T23:13:54.176Z,10.73
2018-02-13T23:16:23.081Z,10.88
2018-02-13T23:18:51.257Z,9.98
2018-02-13T23:21:19.449Z,10.88
2018-02-13T23:23:47.585Z,10.88
2018-02-13T23:26:16.534Z,10.55
2018-02-13T23:28:44.690Z,10.70
2018-02-13T23:31:12.825Z,12.15
2018-02-13T23:33:41.855Z,12.20
2018-02-13T23:36:10.016Z,11.30
2018-02-13T23:38:38.153Z,12.57
2018-02-13T23:41:07.084Z,11.77
2018-02-13T23:43:35.226Z,11.43
2018-02-13T23:46:04.134Z,13.23
2018-02-13T23:48:32.293Z,10.98
2018-02-13T23:51:00.497Z,11.60
2018-02-13T23:53:28.674Z,11.60
2018-02-13T23:55:57.658Z,11.45
2018-02-13T23:58:25.794Z,11.55
